Time;durP1;ratioP1;P1;durP2;ratioP2;P2;SDS_P1;SDS_P2;PMS_P1;PMS_P2;Temp;Humidity;BMP_temperature;BMP_pressure;BME280_temperature;BME280_humidity;BME280_pressure;Samples;Min_cycle;Max_cycle;Signal;HPM_P1;HPM_P2
2023/08/17 00:01:25;;;;;;;5.97;1.80;;;20.40;99.20;;;;;;5070747;28;20454;-85
2023/08/17 00:03:51;;;;;;;2.45;1.55;;;20.40;98.90;;;;;;5073948;28;20028;-86
2023/08/17 00:06:17;;;;;;;3.40;1.40;;;20.30;99.00;;;;;;5074107;28;20356;-85
2023/08/17 00:08:42;;;;;;;2.67;1.27;;;20.30;99.30;;;;;;5076644;28;20452;-85
2023/08/17 00:11:08;;;;;;;3.22;1.40;;;20.30;99.00;;;;;;5089946;28;20360;-84
2023/08/17 00:13:34;;;;;;;3.50;1.35;;;20.30;99.00;;;;;;5073405;28;20033;-85
2023/08/17 00:16:00;;;;;;;3.42;1.50;;;20.30;98.90;;;;;;5065057;28;20416;-84
2023/08/17 00:18:26;;;;;;;4.07;1.63;;;20.30;98.90;;;;;;5083918;28;20032;-85
2023/08/17 00:20:52;;;;;;;3.67;1.55;;;20.20;98.90;;;;;;5057962;28;20028;-85
2023/08/17 00:23:17;;;;;;;3.78;1.65;;;20.20;98.90;;;;;;5054943;28;20021;-85
2023/08/17 00:25:43;;;;;;;5.40;1.63;;;20.20;99.00;;;;;;5062653;28;20021;-86
2023/08/17 00:28:09;;;;;;;2.50;1.20;;;20.20;99.10;;;;;;5070987;28;20044;-86
2023/08/17 00:30:36;;;;;;;3.50;1.55;;;20.30;99.20;;;;;;5052131;28;20047;-85
2023/08/17 00:33:02;;;;;;;5.13;1.70;;;20.20;99.30;;;;;;5070293;28;20507;-85
2023/08/17 00:35:28;;;;;;;2.95;1.52;;;20.20;99.50;;;;;;5056173;28;20456;-86
2023/08/17 00:37:54;;;;;;;2.42;1.33;;;20.10;99.60;;;;;;5072309;28;20032;-87
2023/08/17 00:40:19;;;;;;;4.32;1.50;;;20.10;99.70;;;;;;5055990;28;20060;-86
2023/08/17 00:42:45;;;;;;;4.10;1.55;;;20.00;99.80;;;;;;5070703;28;20845;-86
2023/08/17 00:45:11;;;;;;;3.20;1.70;;;20.00;99.90;;;;;;5055707;28;20456;-86
2023/08/17 00:47:37;;;;;;;4.10;1.63;;;20.00;99.90;;;;;;5073874;28;20456;-85
2023/08/17 00:50:03;;;;;;;3.08;1.58;;;20.00;99.90;;;;;;5083272;28;20452;-86
2023/08/17 00:52:32;;;;;;;2.15;1.40;;;19.90;99.90;;;;;;5059679;28;20047;-86
2023/08/17 00:54:59;;;;;;;4.13;1.40;;;19.90;99.90;;;;;;5072256;28;20107;-87
2023/08/17 00:57:25;;;;;;;2.67;1.38;;;19.90;99.90;;;;;;5068770;28;20337;-86
2023/08/17 00:59:51;;;;;;;4.32;1.73;;;19.90;99.90;;;;;;5062897;28;20493;-86
2023/08/17 01:02:17;;;;;;;2.22;1.25;;;19.90;99.90;;;;;;5065214;28;20029;-86
2023/08/17 01:04:43;;;;;;;2.85;1.30;;;19.90;99.90;;;;;;5062539;28;20526;-87
2023/08/17 01:07:08;;;;;;;3.72;1.35;;;19.80;99.90;;;;;;5099822;28;20033;-86
2023/08/17 01:09:34;;;;;;;3.90;1.50;;;19.90;99.90;;;;;;5072143;28;20154;-86
2023/08/17 01:12:24;;;;;;;1.92;1.30;;;19.90;99.90;;;;;;5073906;28;20031;-86
2023/08/17 01:15:04;;;;;;;3.50;1.38;;;19.90;99.90;;;;;;5067715;28;20021;-86
2023/08/17 01:17:39;;;;;;;2.13;1.40;;;19.90;99.90;;;;;;5102280;28;20024;-85
2023/08/17 01:20:09;;;;;;;2.10;1.10;;;19.90;99.90;;;;;;5097336;28;20039;-86
2023/08/17 01:22:36;;;;;;;4.30;1.80;;;19.90;99.90;;;;;;5095790;28;20032;-82
2023/08/17 01:25:03;;;;;;;2.95;1.27;;;19.80;99.90;;;;;;5089743;28;20024;-87
2023/08/17 01:27:39;;;;;;;4.25;1.20;;;19.80;99.90;;;;;;5073342;28;20167;-86
2023/08/17 01:30:06;;;;;;;3.97;1.40;;;19.80;99.90;;;;;;5077958;28;20028;-86
2023/08/17 01:32:58;;;;;;;4.13;1.65;;;19.80;99.90;;;;;;5083978;28;20025;-85
2023/08/17 01:35:45;;;;;;;3.45;1.83;;;19.80;99.90;;;;;;5070683;28;20012;-85
2023/08/17 01:38:15;;;;;;;2.53;1.65;;;19.80;99.90;;;;;;5071786;28;20040;-85
2023/08/17 01:40:42;;;;;;;2.30;1.48;;;19.70;99.90;;;;;;5060257;28;20109;-86
2023/08/17 01:43:09;;;;;;;4.53;1.40;;;19.60;99.90;;;;;;5079432;28;20103;-87
2023/08/17 01:45:35;;;;;;;1.52;1.35;;;19.60;99.90;;;;;;5053663;28;20025;-85
2023/08/17 01:48:01;;;;;;;4.55;1.40;;;19.60;99.90;;;;;;5051732;28;20093;-86
2023/08/17 01:50:27;;;;;;;3.72;1.50;;;19.60;99.90;;;;;;5066814;28;20060;-86
2023/08/17 01:52:52;;;;;;;4.65;1.83;;;19.60;99.90;;;;;;5087815;28;20392;-87
2023/08/17 01:55:23;;;;;;;5.22;1.70;;;19.60;99.90;;;;;;5071172;28;20017;-86
2023/08/17 01:57:49;;;;;;;3.65;1.50;;;19.60;99.90;;;;;;5064241;28;20052;-86
2023/08/17 02:00:15;;;;;;;4.47;1.40;;;19.60;99.90;;;;;;5055796;28;20063;-87
2023/08/17 02:02:41;;;;;;;4.07;1.70;;;19.50;99.90;;;;;;5072835;28;20475;-86
2023/08/17 02:05:08;;;;;;;3.70;1.75;;;19.50;99.90;;;;;;5073458;28;20036;-86
2023/08/17 02:07:33;;;;;;;2.97;1.50;;;19.50;99.90;;;;;;5051367;28;20029;-87
2023/08/17 02:09:59;;;;;;;4.60;1.60;;;19.50;99.90;;;;;;5051351;28;20136;-86
2023/08/17 02:12:25;;;;;;;4.20;1.80;;;19.40;99.90;;;;;;5051777;28;20021;-86
2023/08/17 02:14:51;;;;;;;2.90;1.60;;;19.40;99.90;;;;;;5067192;28;20078;-86
2023/08/17 02:17:18;;;;;;;5.70;1.58;;;19.40;99.90;;;;;;5058157;28;20376;-85
2023/08/17 02:19:44;;;;;;;3.72;1.67;;;19.40;99.90;;;;;;5071128;28;20078;-86
2023/08/17 02:22:10;;;;;;;3.83;1.90;;;19.30;99.90;;;;;;5064786;28;20460;-86
2023/08/17 02:24:36;;;;;;;4.70;1.70;;;19.20;99.90;;;;;;5071051;28;20035;-86
2023/08/17 02:27:01;;;;;;;4.70;1.60;;;19.20;99.90;;;;;;5054170;28;20047;-86
2023/08/17 02:29:27;;;;;;;5.32;1.88;;;19.10;99.90;;;;;;5072478;28;20100;-86
2023/08/17 02:31:53;;;;;;;3.33;1.50;;;19.10;99.90;;;;;;5064735;28;20107;-85
2023/08/17 02:34:18;;;;;;;5.22;2.17;;;19.00;99.90;;;;;;5060789;28;20031;-85
2023/08/17 02:36:44;;;;;;;5.78;1.63;;;19.00;99.90;;;;;;5071242;28;20116;-86
2023/08/17 02:39:09;;;;;;;3.50;1.67;;;19.00;99.90;;;;;;5077933;28;20469;-86
2023/08/17 02:41:35;;;;;;;4.43;1.60;;;19.00;99.90;;;;;;5063338;28;20122;-86
2023/08/17 02:44:02;;;;;;;3.45;1.60;;;19.00;99.90;;;;;;5073782;28;20124;-86
2023/08/17 02:46:27;;;;;;;4.60;1.88;;;19.00;99.90;;;;;;5087096;28;20033;-86
2023/08/17 02:48:53;;;;;;;3.22;1.77;;;19.00;99.90;;;;;;5100534;28;20372;-85
2023/08/17 02:51:19;;;;;;;2.60;1.42;;;19.00;99.90;;;;;;5075707;28;20032;-85
2023/08/17 02:53:44;;;;;;;2.85;1.48;;;19.00;99.90;;;;;;5114484;27;20092;-84
2023/08/17 02:56:12;;;;;;;3.88;1.60;;;19.00;99.90;;;;;;5072969;28;20375;-85
2023/08/17 02:58:41;;;;;;;3.10;1.48;;;19.00;99.90;;;;;;5090695;28;20024;-85
2023/08/17 03:01:10;;;;;;;4.20;2.00;;;19.00;99.90;;;;;;5074147;28;20191;-85
2023/08/17 03:03:36;;;;;;;3.30;1.40;;;19.00;99.90;;;;;;5068812;28;20107;-85
2023/08/17 03:06:02;;;;;;;2.72;1.33;;;19.00;99.90;;;;;;5072082;28;20403;-85
2023/08/17 03:08:28;;;;;;;4.00;1.65;;;19.00;99.90;;;;;;5074472;28;20052;-86
2023/08/17 03:10:54;;;;;;;4.18;1.45;;;19.00;99.90;;;;;;5075698;28;20076;-86
2023/08/17 03:13:19;;;;;;;4.07;1.52;;;19.10;99.90;;;;;;5074552;28;20096;-85
2023/08/17 03:15:45;;;;;;;2.22;1.63;;;19.10;99.90;;;;;;5081656;28;20048;-85
2023/08/17 03:18:11;;;;;;;3.65;1.67;;;19.10;99.90;;;;;;5113405;28;20044;-84
2023/08/17 03:20:37;;;;;;;5.72;1.80;;;19.10;99.90;;;;;;5094778;28;20028;-84
2023/08/17 03:23:06;;;;;;;4.55;1.50;;;19.10;99.90;;;;;;5104213;28;20044;-84
2023/08/17 03:25:31;;;;;;;3.03;1.80;;;19.00;99.90;;;;;;5100057;28;20043;-84
2023/08/17 03:27:57;;;;;;;4.53;1.60;;;19.00;99.90;;;;;;5115941;28;20088;-84
2023/08/17 03:30:23;;;;;;;5.43;1.42;;;18.90;99.90;;;;;;5056289;28;20044;-85
2023/08/17 03:32:48;;;;;;;4.88;1.60;;;18.90;99.90;;;;;;5072750;28;20412;-85
2023/08/17 03:35:14;;;;;;;6.00;1.67;;;18.90;99.90;;;;;;5056407;28;20554;-85
2023/08/17 03:37:40;;;;;;;4.25;1.70;;;18.90;99.90;;;;;;5053825;28;20041;-85
2023/08/17 03:40:06;;;;;;;3.38;1.80;;;18.90;99.90;;;;;;5085105;28;20025;-85
2023/08/17 03:42:32;;;;;;;2.85;1.90;;;18.80;99.90;;;;;;5074149;28;20413;-85
2023/08/17 03:44:57;;;;;;;4.88;1.80;;;18.80;99.90;;;;;;5071890;28;20023;-84
2023/08/17 03:47:23;;;;;;;5.55;2.20;;;18.70;99.90;;;;;;5056820;28;20034;-84
2023/08/17 03:49:48;;;;;;;4.40;1.45;;;18.60;99.90;;;;;;5052067;28;20044;-84
2023/08/17 03:52:14;;;;;;;3.58;1.70;;;18.50;99.90;;;;;;5087785;28;20087;-85
2023/08/17 03:54:40;;;;;;;5.75;1.90;;;18.60;99.90;;;;;;5107430;28;20070;-85
2023/08/17 03:57:05;;;;;;;4.18;1.80;;;18.60;99.90;;;;;;5072740;28;20021;-85
2023/08/17 03:59:31;;;;;;;5.97;1.83;;;18.50;99.90;;;;;;5056857;28;20036;-85
2023/08/17 04:01:57;;;;;;;5.43;1.98;;;18.50;99.90;;;;;;5072059;28;20016;-85
2023/08/17 04:04:23;;;;;;;3.70;2.00;;;18.50;99.90;;;;;;5052719;28;20029;-85
2023/08/17 04:06:48;;;;;;;4.28;1.90;;;18.50;99.90;;;;;;5070198;28;20061;-85
2023/08/17 04:09:14;;;;;;;2.97;1.60;;;18.50;99.90;;;;;;5069845;28;20028;-85
2023/08/17 04:11:39;;;;;;;3.83;1.90;;;18.50;99.90;;;;;;5055990;28;20063;-85
2023/08/17 04:14:05;;;;;;;3.63;1.80;;;18.50;99.90;;;;;;5071371;28;20111;-85
2023/08/17 04:16:32;;;;;;;4.45;1.77;;;18.40;99.90;;;;;;5074155;28;20029;-85
2023/08/17 04:18:57;;;;;;;2.58;1.75;;;18.50;99.90;;;;;;5072081;28;20083;-84
2023/08/17 04:21:23;;;;;;;4.05;2.03;;;18.50;99.90;;;;;;5074113;28;20385;-84
2023/08/17 04:23:48;;;;;;;3.97;1.80;;;18.50;99.90;;;;;;5087911;28;20456;-84
2023/08/17 04:26:14;;;;;;;3.28;1.60;;;18.50;99.90;;;;;;5072617;28;20468;-85
2023/08/17 04:28:40;;;;;;;3.33;1.35;;;18.50;99.90;;;;;;5056339;28;20033;-85
2023/08/17 04:31:05;;;;;;;2.85;1.75;;;18.50;99.90;;;;;;5072432;28;20140;-84
2023/08/17 04:33:31;;;;;;;3.28;1.90;;;18.50;99.90;;;;;;5086385;28;20039;-82
2023/08/17 04:35:58;;;;;;;4.10;1.80;;;18.60;99.90;;;;;;5063239;28;20370;-84
2023/08/17 04:38:25;;;;;;;5.05;1.88;;;18.50;99.90;;;;;;5064429;28;20033;-83
2023/08/17 04:40:51;;;;;;;3.85;1.50;;;18.50;99.90;;;;;;5104076;28;20028;-83
2023/08/17 04:43:16;;;;;;;4.63;2.15;;;18.50;99.90;;;;;;5074966;28;20106;-84
2023/08/17 04:45:42;;;;;;;5.95;2.40;;;18.60;99.90;;;;;;5103313;27;20024;-83
2023/08/17 04:48:08;;;;;;;5.80;1.92;;;18.60;99.90;;;;;;5095604;27;20368;-82
2023/08/17 04:50:33;;;;;;;3.88;1.67;;;18.60;99.90;;;;;;5099047;27;20036;-84
2023/08/17 04:52:59;;;;;;;3.60;1.70;;;18.60;99.90;;;;;;5072319;28;20116;-84
2023/08/17 04:55:24;;;;;;;4.57;1.70;;;18.60;99.90;;;;;;5058147;28;20028;-84
2023/08/17 04:57:50;;;;;;;3.35;1.70;;;18.60;99.90;;;;;;5088405;28;20070;-84
2023/08/17 05:00:16;;;;;;;4.35;1.60;;;18.60;99.90;;;;;;5069117;28;20028;-84
2023/08/17 05:02:42;;;;;;;2.53;1.40;;;18.60;99.90;;;;;;5056944;28;20051;-84
2023/08/17 05:05:10;;;;;;;4.32;1.73;;;18.60;99.90;;;;;;5082752;28;20028;-83
2023/08/17 05:07:35;;;;;;;4.38;1.80;;;18.60;99.90;;;;;;5098212;28;20012;-84
2023/08/17 05:10:01;;;;;;;5.05;2.05;;;18.60;99.90;;;;;;5094915;28;20032;-82
2023/08/17 05:12:27;;;;;;;3.15;1.50;;;18.50;99.90;;;;;;5096598;28;20046;-83
2023/08/17 05:14:53;;;;;;;3.47;1.48;;;18.50;99.90;;;;;;5094964;28;20092;-83
2023/08/17 05:17:19;;;;;;;6.15;1.73;;;18.50;99.90;;;;;;5112220;28;20101;-83
2023/08/17 05:19:44;;;;;;;2.70;1.55;;;18.50;99.90;;;;;;5069445;28;20068;-83
2023/08/17 05:22:11;;;;;;;4.65;1.90;;;18.50;99.90;;;;;;5064920;28;20025;-83
2023/08/17 05:24:37;;;;;;;3.88;1.90;;;18.50;99.90;;;;;;5067298;28;20781;-83
2023/08/17 05:27:03;;;;;;;2.65;1.42;;;18.50;99.90;;;;;;5076713;28;20116;-82
2023/08/17 05:29:28;;;;;;;4.65;1.60;;;18.50;99.90;;;;;;5073661;28;20037;-83
2023/08/17 05:31:54;;;;;;;4.75;1.60;;;18.50;99.90;;;;;;5088150;28;20419;-82
2023/08/17 05:34:20;;;;;;;4.45;1.60;;;18.50;99.90;;;;;;5065378;28;20039;-84
2023/08/17 05:36:45;;;;;;;3.67;1.80;;;18.60;99.90;;;;;;5100732;28;20025;-84
2023/08/17 05:39:11;;;;;;;3.92;1.40;;;18.60;99.90;;;;;;5084932;28;20468;-84
2023/08/17 05:41:37;;;;;;;3.90;1.63;;;18.60;99.90;;;;;;5085840;28;20029;-84
2023/08/17 05:44:03;;;;;;;3.28;1.50;;;18.60;99.90;;;;;;5102038;28;20487;-84
2023/08/17 05:46:28;;;;;;;5.15;1.60;;;18.60;99.90;;;;;;5080665;28;20018;-83
2023/08/17 05:48:54;;;;;;;3.88;1.50;;;18.60;99.90;;;;;;5087751;28;20029;-83
2023/08/17 05:51:20;;;;;;;4.65;1.73;;;18.60;99.90;;;;;;5088747;28;20020;-84
2023/08/17 05:53:45;;;;;;;3.13;1.60;;;18.60;99.90;;;;;;5072301;28;20026;-84
2023/08/17 05:56:11;;;;;;;3.28;1.30;;;18.70;99.90;;;;;;5073862;28;20050;-84
2023/08/17 05:58:36;;;;;;;2.80;1.65;;;18.80;99.90;;;;;;5115448;28;20063;-83
2023/08/17 06:01:07;;;;;;;2.08;1.48;;;18.80;99.90;;;;;;5094233;28;20020;-82
2023/08/17 06:03:33;;;;;;;4.78;1.75;;;18.90;99.90;;;;;;5069950;28;20044;-84
2023/08/17 06:05:59;;;;;;;5.13;2.17;;;18.90;99.90;;;;;;5052461;28;20040;-84
2023/08/17 06:08:24;;;;;;;2.80;1.92;;;18.90;99.90;;;;;;5101129;28;20017;-83
2023/08/17 06:10:50;;;;;;;4.03;1.80;;;18.90;99.90;;;;;;5093168;28;20052;-84
2023/08/17 06:13:16;;;;;;;2.47;1.30;;;18.80;99.90;;;;;;5076282;28;20028;-83
2023/08/17 06:15:41;;;;;;;2.50;1.42;;;18.90;99.90;;;;;;5093143;28;20044;-85
2023/08/17 06:18:07;;;;;;;2.90;1.65;;;18.90;99.90;;;;;;5093292;28;20123;-84
2023/08/17 06:20:32;;;;;;;2.90;1.80;;;19.00;99.90;;;;;;5075833;28;20021;-84
2023/08/17 06:22:58;;;;;;;2.75;1.58;;;19.00;99.90;;;;;;5096618;28;20047;-84
2023/08/17 06:25:25;;;;;;;5.40;2.13;;;19.00;99.90;;;;;;5078843;28;20467;-84
2023/08/17 06:27:51;;;;;;;4.10;2.30;;;19.10;99.90;;;;;;5078683;28;20343;-84
2023/08/17 06:30:18;;;;;;;4.55;1.63;;;19.00;99.90;;;;;;5096483;28;20039;-84
2023/08/17 06:32:43;;;;;;;5.30;1.80;;;19.10;99.90;;;;;;5095623;28;20031;-71
2023/08/17 06:35:09;;;;;;;2.72;1.45;;;19.00;99.90;;;;;;5082846;28;20476;-72
2023/08/17 06:37:35;;;;;;;1.98;1.35;;;19.00;99.90;;;;;;5090536;28;20027;-72
2023/08/17 06:40:02;;;;;;;2.80;1.38;;;19.00;99.90;;;;;;5096977;28;20045;-68
2023/08/17 06:42:28;;;;;;;3.50;1.30;;;18.90;99.90;;;;;;5083403;28;20025;-69
2023/08/17 06:44:53;;;;;;;2.85;1.40;;;18.90;99.90;;;;;;5108937;28;20360;-69
2023/08/17 06:47:19;;;;;;;4.40;1.83;;;19.00;99.90;;;;;;5076566;28;20416;-71
2023/08/17 06:49:45;;;;;;;3.17;1.50;;;19.00;99.90;;;;;;5075556;28;20056;-70
2023/08/17 06:52:10;;;;;;;3.70;1.55;;;19.10;99.90;;;;;;5076737;28;20048;-71
2023/08/17 06:54:36;;;;;;;3.35;1.85;;;19.10;99.90;;;;;;5088718;28;20044;-71
2023/08/17 06:57:01;;;;;;;4.20;1.60;;;19.10;99.90;;;;;;5099999;28;20029;-71
2023/08/17 06:59:27;;;;;;;4.15;2.10;;;19.10;99.90;;;;;;5117470;28;20063;-70
2023/08/17 07:01:53;;;;;;;7.05;1.70;;;19.10;99.90;;;;;;5121714;28;20016;-71
2023/08/17 07:04:18;;;;;;;5.50;1.90;;;19.00;99.90;;;;;;5099726;28;20015;-72
2023/08/17 07:06:44;;;;;;;3.10;1.45;;;19.00;99.90;;;;;;5106304;28;20008;-71
2023/08/17 07:09:12;;;;;;;3.72;1.45;;;19.00;99.90;;;;;;5113883;28;20035;-71
2023/08/17 07:11:38;;;;;;;4.07;1.63;;;19.10;99.90;;;;;;5091723;28;20375;-71
2023/08/17 07:14:06;;;;;;;3.33;1.63;;;19.10;99.90;;;;;;5075422;28;20430;-71
2023/08/17 07:16:32;;;;;;;3.58;1.77;;;19.20;99.90;;;;;;5086175;28;20031;-70
2023/08/17 07:18:57;;;;;;;3.58;1.80;;;19.20;99.90;;;;;;5096150;28;20028;-70
2023/08/17 07:21:23;;;;;;;2.33;1.70;;;19.20;99.90;;;;;;5094918;28;20026;-71
2023/08/17 07:23:50;;;;;;;5.43;1.65;;;19.20;99.90;;;;;;5094832;28;20023;-71
2023/08/17 07:26:18;;;;;;;4.53;2.30;;;19.30;99.90;;;;;;5076173;28;20021;-71
2023/08/17 07:28:44;;;;;;;4.28;1.67;;;19.30;99.90;;;;;;5071367;28;20025;-70
2023/08/17 07:31:10;;;;;;;2.80;1.63;;;19.30;99.90;;;;;;5056340;28;20021;-68
2023/08/17 07:33:36;;;;;;;3.75;1.83;;;19.30;99.90;;;;;;5071313;28;20106;-69
2023/08/17 07:36:03;;;;;;;4.00;1.77;;;19.40;99.90;;;;;;5079298;28;20108;-69
2023/08/17 07:38:28;;;;;;;3.63;1.50;;;19.40;99.90;;;;;;5074516;28;20418;-69
2023/08/17 07:40:55;;;;;;;3.95;1.60;;;19.40;99.90;;;;;;5075365;28;20028;-69
2023/08/17 07:43:20;;;;;;;5.40;1.50;;;19.50;99.90;;;;;;5075068;28;20081;-69
2023/08/17 07:45:52;;;;;;;3.75;1.80;;;19.50;99.90;;;;;;5074970;28;20107;-69
2023/08/17 07:48:18;;;;;;;3.08;1.60;;;19.60;99.90;;;;;;5074974;28;20032;-72
2023/08/17 07:50:47;;;;;;;5.78;1.90;;;19.60;99.90;;;;;;5078794;28;20356;-72
2023/08/17 07:53:13;;;;;;;5.00;1.60;;;19.70;99.90;;;;;;5095337;28;20012;-71
2023/08/17 07:55:39;;;;;;;2.13;1.40;;;19.70;99.90;;;;;;5076870;28;20368;-72
2023/08/17 07:58:06;;;;;;;4.22;1.90;;;19.80;99.90;;;;;;5094075;28;20086;-80
2023/08/17 08:00:32;;;;;;;2.85;1.42;;;19.70;99.90;;;;;;5067904;28;20024;-71
2023/08/17 08:02:57;;;;;;;4.57;1.80;;;19.70;99.90;;;;;;5074748;28;20047;-71
2023/08/17 08:05:23;;;;;;;2.72;1.70;;;19.70;99.90;;;;;;5058243;28;20028;-72
2023/08/17 08:07:49;;;;;;;3.78;2.10;;;19.70;99.90;;;;;;5087218;28;20027;-71
2023/08/17 08:10:15;;;;;;;6.35;1.60;;;19.60;99.90;;;;;;5055325;28;20041;-88
2023/08/17 08:12:40;;;;;;;7.95;2.15;;;19.60;99.90;;;;;;5070799;28;20418;-87
2023/08/17 08:15:07;;;;;;;5.25;2.40;;;19.60;99.90;;;;;;5074075;28;20024;-88
2023/08/17 08:17:32;;;;;;;3.58;1.80;;;19.60;99.90;;;;;;5090419;28;20024;-87
2023/08/17 08:19:59;;;;;;;3.47;1.67;;;19.60;99.90;;;;;;5090881;28;20364;-86
2023/08/17 08:22:25;;;;;;;4.72;1.88;;;19.60;99.90;;;;;;5125647;27;20027;-87
2023/08/17 08:24:53;;;;;;;3.17;1.80;;;19.70;99.90;;;;;;5077395;28;20016;-87
2023/08/17 08:27:19;;;;;;;5.03;1.70;;;19.80;99.90;;;;;;5094003;28;20028;-85
2023/08/17 08:29:45;;;;;;;3.15;1.77;;;19.90;99.90;;;;;;5056655;28;20041;-87
2023/08/17 08:32:11;;;;;;;4.95;1.92;;;19.90;99.90;;;;;;5069947;28;20028;-88
2023/08/17 08:34:36;;;;;;;4.60;2.20;;;19.90;99.90;;;;;;5059987;28;20059;-87
2023/08/17 08:37:02;;;;;;;3.20;1.70;;;19.90;99.90;;;;;;5073755;28;20029;-88
2023/08/17 08:39:28;;;;;;;5.45;1.90;;;19.90;99.90;;;;;;5060806;28;20108;-87
2023/08/17 08:41:54;;;;;;;5.45;2.25;;;19.90;99.90;;;;;;5072138;28;20027;-87
2023/08/17 08:44:20;;;;;;;6.25;2.08;;;19.80;99.90;;;;;;5095296;28;20099;-88
2023/08/17 08:46:45;;;;;;;3.20;2.03;;;19.80;99.90;;;;;;5094147;28;20028;-88
2023/08/17 08:49:12;;;;;;;4.18;2.03;;;19.90;99.90;;;;;;5077326;28;20024;-87
2023/08/17 08:51:50;;;;;;;2.58;1.50;;;19.90;99.90;;;;;;5083037;28;20024;-86
2023/08/17 08:54:24;;;;;;;3.00;2.13;;;19.90;99.90;;;;;;5077939;28;20005;-87
2023/08/17 08:56:58;;;;;;;6.22;2.25;;;20.00;99.90;;;;;;5079860;28;20016;-87
2023/08/17 08:59:26;;;;;;;4.82;1.80;;;20.10;99.90;;;;;;5096870;28;20050;-85
2023/08/17 09:01:52;;;;;;;4.72;2.05;;;20.00;99.90;;;;;;5144983;27;20008;-86
2023/08/17 09:04:18;;;;;;;4.65;2.33;;;20.10;99.90;;;;;;5104300;28;20444;-86
2023/08/17 09:06:45;;;;;;;6.93;2.42;;;20.10;99.90;;;;;;5093632;28;20020;-86
2023/08/17 09:09:14;;;;;;;5.30;2.60;;;20.10;99.90;;;;;;5094132;28;20028;-87
2023/08/17 09:11:41;;;;;;;4.28;2.20;;;20.10;99.90;;;;;;5075721;28;20088;-88
2023/08/17 09:14:07;;;;;;;5.63;2.20;;;20.10;99.90;;;;;;5090027;28;20438;-88
2023/08/17 09:16:32;;;;;;;4.13;2.53;;;20.20;99.90;;;;;;5074468;28;20436;-87
2023/08/17 09:18:59;;;;;;;4.55;2.13;;;20.20;99.90;;;;;;5081318;28;20027;-88
2023/08/17 09:21:25;;;;;;;5.57;2.72;;;20.30;99.90;;;;;;5093501;28;20052;-87
2023/08/17 09:23:55;;;;;;;6.40;2.70;;;20.30;99.90;;;;;;5093495;28;20016;-87
2023/08/17 09:26:24;;;;;;;7.07;2.60;;;20.20;99.90;;;;;;5091614;28;20031;-86
2023/08/17 09:28:51;;;;;;;4.57;3.28;;;20.20;99.90;;;;;;5084387;28;20024;-87
2023/08/17 09:31:21;;;;;;;7.30;3.42;;;20.30;99.90;;;;;;5074118;28;20423;-86
2023/08/17 09:33:52;;;;;;;7.07;3.17;;;20.30;99.90;;;;;;5072597;28;20020;-87
2023/08/17 09:36:24;;;;;;;4.88;3.10;;;20.30;99.90;;;;;;5073698;28;20323;-87
2023/08/17 09:38:53;;;;;;;5.65;3.00;;;20.40;99.90;;;;;;5105992;28;20097;-86
2023/08/17 09:41:19;;;;;;;7.00;3.20;;;20.30;99.90;;;;;;5072265;28;20032;-86
2023/08/17 09:43:46;;;;;;;6.57;3.72;;;20.40;99.90;;;;;;5071133;28;20021;-87
2023/08/17 09:46:12;;;;;;;6.70;4.00;;;20.40;99.90;;;;;;5074196;28;20021;-88
2023/08/17 09:48:38;;;;;;;7.70;3.55;;;20.50;99.90;;;;;;5072837;28;20367;-87
2023/08/17 09:51:05;;;;;;;4.80;3.28;;;20.50;99.90;;;;;;5089869;28;20035;-87
2023/08/17 09:53:36;;;;;;;5.55;3.10;;;20.50;99.90;;;;;;5089279;28;20024;-87
2023/08/17 09:56:02;;;;;;;5.35;3.40;;;20.50;99.90;;;;;;5073006;28;20017;-87
2023/08/17 09:58:28;;;;;;;6.82;3.67;;;20.60;99.90;;;;;;5073887;28;20101;-87
2023/08/17 10:00:55;;;;;;;4.97;3.42;;;20.60;99.90;;;;;;5089672;28;20436;-87
2023/08/17 10:03:25;;;;;;;7.53;4.03;;;20.60;99.90;;;;;;5073032;28;20016;-88
2023/08/17 10:06:06;;;;;;;9.68;4.10;;;20.60;99.90;;;;;;5072846;28;20028;-88
2023/08/17 10:08:35;;;;;;;5.28;3.22;;;20.60;99.90;;;;;;5072870;28;20460;-87
2023/08/17 10:11:04;;;;;;;7.47;4.25;;;20.70;99.90;;;;;;5074256;28;20036;-87
2023/08/17 10:13:47;;;;;;;6.95;3.42;;;20.70;99.90;;;;;;5074164;28;20013;-88
2023/08/17 10:16:33;;;;;;;6.82;3.50;;;20.80;99.90;;;;;;5072748;28;20325;-88
2023/08/17 10:19:01;;;;;;;7.10;3.50;;;20.80;99.90;;;;;;5072598;28;20439;-87
2023/08/17 10:21:41;;;;;;;5.03;3.17;;;20.80;99.90;;;;;;5072628;28;20048;-88
2023/08/17 10:24:07;;;;;;;8.93;3.78;;;20.90;99.90;;;;;;5073244;28;20030;-88
2023/08/17 10:26:33;;;;;;;8.85;3.90;;;20.90;99.90;;;;;;5089888;28;20123;-87
2023/08/17 10:29:02;;;;;;;5.95;3.53;;;20.90;99.90;;;;;;5074191;28;20075;-87
2023/08/17 10:31:29;;;;;;;6.40;3.40;;;21.00;99.90;;;;;;5072791;28;20406;-87
2023/08/17 10:33:57;;;;;;;8.30;3.67;;;21.00;99.90;;;;;;5089524;28;20052;-88
2023/08/17 10:36:23;;;;;;;6.40;3.03;;;21.00;99.90;;;;;;5106452;28;20025;-88
2023/08/17 10:39:18;;;;;;;7.47;3.60;;;21.10;99.90;;;;;;5089634;28;20032;-88
2023/08/17 10:41:48;;;;;;;8.30;4.05;;;21.00;99.90;;;;;;5074042;28;20021;-87
2023/08/17 10:44:14;;;;;;;8.32;3.83;;;21.00;99.90;;;;;;5073117;28;20032;-88
2023/08/17 10:46:42;;;;;;;7.50;4.32;;;20.90;99.90;;;;;;5107688;28;20025;-87
2023/08/17 10:49:25;;;;;;;6.70;3.58;;;20.90;99.90;;;;;;5102635;28;20033;-88
2023/08/17 10:52:04;;;;;;;6.70;3.63;;;21.00;99.90;;;;;;5093580;28;20009;-88
2023/08/17 10:54:40;;;;;;;7.07;4.57;;;21.00;99.90;;;;;;5096981;28;20100;-88
2023/08/17 10:57:25;;;;;;;6.75;3.85;;;21.10;99.90;;;;;;5100347;28;20048;-88
2023/08/17 11:00:26;;;;;;;5.65;3.20;;;21.10;99.90;;;;;;5115922;28;20024;-88
2023/08/17 11:02:56;;;;;;;6.40;3.80;;;21.10;99.90;;;;;;5074774;28;20180;-88
2023/08/17 11:05:58;;;;;;;7.00;3.83;;;21.10;99.90;;;;;;5079624;28;20056;-88
2023/08/17 11:08:32;;;;;;;5.47;3.58;;;21.10;99.90;;;;;;5078129;28;20020;-87
2023/08/17 11:11:09;;;;;;;6.28;3.70;;;21.10;99.90;;;;;;5073494;28;20047;-87
2023/08/17 11:13:40;;;;;;;7.95;4.00;;;21.10;99.90;;;;;;5076401;28;20444;-88
2023/08/17 11:16:06;;;;;;;7.40;4.20;;;21.10;99.90;;;;;;5075395;28;20052;-88
2023/08/17 11:18:33;;;;;;;7.22;3.75;;;21.10;99.90;;;;;;5114463;27;20029;-89
2023/08/17 11:21:00;;;;;;;6.03;3.75;;;21.10;99.90;;;;;;5071958;28;20036;-88
2023/08/17 11:23:29;;;;;;;8.13;4.22;;;21.10;99.90;;;;;;5078119;28;20020;-88
2023/08/17 11:25:55;;;;;;;9.40;4.00;;;21.10;99.90;;;;;;5078970;28;20073;-88
2023/08/17 11:28:22;;;;;;;5.32;3.63;;;21.10;99.90;;;;;;5095833;28;20032;-88
2023/08/17 11:30:57;;;;;;;6.05;3.85;;;21.20;99.90;;;;;;5088362;28;20021;-88
2023/08/17 11:33:23;;;;;;;6.45;3.75;;;21.20;99.90;;;;;;5071515;28;20108;-88
2023/08/17 11:35:50;;;;;;;7.32;4.32;;;21.30;99.90;;;;;;5058171;28;20056;-88
2023/08/17 11:38:15;;;;;;;5.80;3.92;;;21.20;99.90;;;;;;5066697;28;20456;-88
2023/08/17 11:40:41;;;;;;;4.95;3.58;;;21.20;99.90;;;;;;5077162;28;20023;-87
2023/08/17 11:43:07;;;;;;;6.22;3.83;;;21.20;99.90;;;;;;5058980;28;20376;-88
2023/08/17 11:45:33;;;;;;;8.27;4.78;;;21.20;99.90;;;;;;5075271;28;20025;-88
2023/08/17 11:47:59;;;;;;;6.75;4.38;;;21.20;99.90;;;;;;5074622;28;20029;-88
2023/08/17 11:50:26;;;;;;;6.80;4.00;;;21.30;99.90;;;;;;5091872;28;20021;-88
2023/08/17 11:52:51;;;;;;;7.22;4.03;;;21.30;99.90;;;;;;5091507;28;20044;-88
2023/08/17 11:55:18;;;;;;;7.53;3.92;;;21.40;99.90;;;;;;5091642;28;20024;-88
2023/08/17 11:57:44;;;;;;;9.88;3.95;;;21.50;99.90;;;;;;5075810;28;20019;-87
2023/08/17 12:00:16;;;;;;;5.20;3.95;;;21.40;99.90;;;;;;5102889;28;20064;-88
2023/08/17 12:02:43;;;;;;;6.22;3.85;;;21.40;99.90;;;;;;5095063;28;20427;-88
2023/08/17 12:05:09;;;;;;;7.28;3.70;;;21.40;99.90;;;;;;5078177;28;20043;-87
2023/08/17 12:07:35;;;;;;;7.80;4.47;;;21.30;99.90;;;;;;5054430;28;20021;-87
2023/08/17 12:10:03;;;;;;;6.45;4.13;;;21.30;99.90;;;;;;5086861;28;20496;-88
2023/08/17 12:12:29;;;;;;;6.88;4.15;;;21.20;99.90;;;;;;5071014;28;20063;-87
2023/08/17 12:14:54;;;;;;;7.18;4.25;;;21.30;99.90;;;;;;5062634;28;20021;-88
2023/08/17 12:17:21;;;;;;;6.60;4.10;;;21.20;99.90;;;;;;5057716;28;20032;-89
2023/08/17 12:19:58;;;;;;;4.32;3.55;;;21.20;99.90;;;;;;5074310;28;20025;-88
2023/08/17 12:22:25;;;;;;;6.88;3.92;;;21.20;99.90;;;;;;5074686;28;20016;-88
2023/08/17 12:24:52;;;;;;;5.30;3.70;;;21.20;99.90;;;;;;5092398;28;20024;-89
2023/08/17 12:27:18;;;;;;;5.95;3.90;;;21.20;99.90;;;;;;5090590;28;20039;-88
2023/08/17 12:29:48;;;;;;;5.25;3.80;;;21.20;99.90;;;;;;5074181;28;20024;-89
2023/08/17 12:32:15;;;;;;;6.43;3.92;;;21.20;99.90;;;;;;5091503;28;20024;-88
2023/08/17 12:34:41;;;;;;;6.18;3.88;;;21.20;99.90;;;;;;5072901;28;20023;-88
2023/08/17 12:37:09;;;;;;;5.65;3.78;;;21.20;99.90;;;;;;5040951;28;20037;-87
2023/08/17 12:39:35;;;;;;;6.82;4.45;;;21.20;99.90;;;;;;5074269;28;20017;-88
2023/08/17 12:42:02;;;;;;;5.82;4.40;;;21.20;99.90;;;;;;5073021;28;20116;-88
2023/08/17 12:44:28;;;;;;;7.82;5.00;;;21.20;99.90;;;;;;5086674;28;20081;-87
2023/08/17 12:46:53;;;;;;;6.60;4.07;;;21.30;99.90;;;;;;5089430;28;20008;-89
2023/08/17 12:49:19;;;;;;;6.78;4.35;;;21.20;99.90;;;;;;5099750;28;20020;-87